sensor_id;sensor_type;location;lat;lon;timestamp;temperature;humidity
20977;DHT22;10647;51.016;3.720;2022-12-29T00:00:36;13.20;99.90
20977;DHT22;10647;51.016;3.720;2022-12-29T00:03:03;13.20;99.90
20977;DHT22;10647;51.016;3.720;2022-12-29T00:05:32;13.30;99.90
20977;DHT22;10647;51.016;3.720;2022-12-29T00:07:59;13.40;99.90
20977;DHT22;10647;51.016;3.720;2022-12-29T00:10:27;13.30;99.90
20977;DHT22;10647;51.016;3.720;2022-12-29T00:12:54;13.40;99.90
20977;DHT22;10647;51.016;3.720;2022-12-29T00:15:40;13.50;99.90
20977;DHT22;10647;51.016;3.720;2022-12-29T00:18:07;13.50;99.90
20977;DHT22;10647;51.016;3.720;2022-12-29T00:20:36;13.50;99.90
20977;DHT22;10647;51.016;3.720;2022-12-29T00:23:22;13.60;99.90
20977;DHT22;10647;51.016;3.720;2022-12-29T00:26:17;13.60;99.90
20977;DHT22;10647;51.016;3.720;2022-12-29T00:29:02;13.60;99.90
20977;DHT22;10647;51.016;3.720;2022-12-29T00:31:51;13.50;99.90
20977;DHT22;10647;51.016;3.720;2022-12-29T00:34:26;13.50;99.90
20977;DHT22;10647;51.016;3.720;2022-12-29T00:37:14;13.40;99.90
20977;DHT22;10647;51.016;3.720;2022-12-29T00:39:42;13.40;99.90
20977;DHT22;10647;51.016;3.720;2022-12-29T00:42:27;13.50;99.90
20977;DHT22;10647;51.016;3.720;2022-12-29T00:45:13;13.50;99.90
20977;DHT22;10647;51.016;3.720;2022-12-29T00:47:41;13.50;99.90
20977;DHT22;10647;51.016;3.720;2022-12-29T00:50:10;13.50;99.90
20977;DHT22;10647;51.016;3.720;2022-12-29T00:52:37;13.50;99.90
20977;DHT22;10647;51.016;3.720;2022-12-29T00:55:05;13.50;99.90
20977;DHT22;10647;51.016;3.720;2022-12-29T00:57:33;13.60;99.90
20977;DHT22;10647;51.016;3.720;2022-12-29T01:00:02;13.60;99.90
20977;DHT22;10647;51.016;3.720;2022-12-29T01:02:30;13.70;99.90
20977;DHT22;10647;51.016;3.720;2022-12-29T01:04:57;13.80;99.90
20977;DHT22;10647;51.016;3.720;2022-12-29T01:07:25;13.80;99.90
20977;DHT22;10647;51.016;3.720;2022-12-29T01:09:52;13.80;99.90
20977;DHT22;10647;51.016;3.720;2022-12-29T01:12:38;13.80;99.90
20977;DHT22;10647;51.016;3.720;2022-12-29T01:15:12;13.80;99.90
20977;DHT22;10647;51.016;3.720;2022-12-29T01:17:40;13.80;99.90
20977;DHT22;10647;51.016;3.720;2022-12-29T01:20:27;13.90;99.90
20977;DHT22;10647;51.016;3.720;2022-12-29T01:22:54;13.90;99.90
20977;DHT22;10647;51.016;3.720;2022-12-29T01:25:22;13.90;99.90
20977;DHT22;10647;51.016;3.720;2022-12-29T01:27:49;13.90;99.90
20977;DHT22;10647;51.016;3.720;2022-12-29T01:30:17;13.90;99.90
20977;DHT22;10647;51.016;3.720;2022-12-29T01:32:50;13.90;99.90
20977;DHT22;10647;51.016;3.720;2022-12-29T01:35:20;13.90;99.90
20977;DHT22;10647;51.016;3.720;2022-12-29T01:37:48;13.90;99.90
20977;DHT22;10647;51.016;3.720;2022-12-29T01:40:15;13.80;99.90
20977;DHT22;10647;51.016;3.720;2022-12-29T01:42:44;13.80;99.90
20977;DHT22;10647;51.016;3.720;2022-12-29T01:45:12;13.80;99.90
20977;DHT22;10647;51.016;3.720;2022-12-29T01:47:48;13.80;99.90
20977;DHT22;10647;51.016;3.720;2022-12-29T01:50:22;13.80;99.90
20977;DHT22;10647;51.016;3.720;2022-12-29T01:52:57;13.70;99.90
20977;DHT22;10647;51.016;3.720;2022-12-29T01:55:27;13.70;99.90
20977;DHT22;10647;51.016;3.720;2022-12-29T01:57:58;13.60;99.90
20977;DHT22;10647;51.016;3.720;2022-12-29T02:00:26;13.60;99.90
20977;DHT22;10647;51.016;3.720;2022-12-29T02:05:51;13.60;99.90
20977;DHT22;10647;51.016;3.720;2022-12-29T02:08:20;13.60;99.90
20977;DHT22;10647;51.016;3.720;2022-12-29T02:10:48;13.60;99.90
20977;DHT22;10647;51.016;3.720;2022-12-29T02:13:19;13.50;99.90
20977;DHT22;10647;51.016;3.720;2022-12-29T02:16:09;13.50;99.90
20977;DHT22;10647;51.016;3.720;2022-12-29T02:27:42;13.50;99.90
20977;DHT22;10647;51.016;3.720;2022-12-29T02:32:52;13.50;99.90
20977;DHT22;10647;51.016;3.720;2022-12-29T02:35:30;13.50;99.90
20977;DHT22;10647;51.016;3.720;2022-12-29T02:38:19;13.50;99.90
20977;DHT22;10647;51.016;3.720;2022-12-29T02:41:02;13.50;99.90
20977;DHT22;10647;51.016;3.720;2022-12-29T02:46:26;13.40;99.90
20977;DHT22;10647;51.016;3.720;2022-12-29T02:48:56;13.40;99.90
20977;DHT22;10647;51.016;3.720;2022-12-29T02:51:31;13.40;99.90
20977;DHT22;10647;51.016;3.720;2022-12-29T02:53:58;13.40;99.90
20977;DHT22;10647;51.016;3.720;2022-12-29T02:56:44;13.30;99.90
20977;DHT22;10647;51.016;3.720;2022-12-29T02:59:12;13.30;99.90
20977;DHT22;10647;51.016;3.720;2022-12-29T03:08:05;13.30;99.90
20977;DHT22;10647;51.016;3.720;2022-12-29T03:16:43;13.10;99.90
20977;DHT22;10647;51.016;3.720;2022-12-29T03:19:31;13.10;99.90
20977;DHT22;10647;51.016;3.720;2022-12-29T03:22:07;12.90;99.90
20977;DHT22;10647;51.016;3.720;2022-12-29T03:24:53;12.90;99.90
20977;DHT22;10647;51.016;3.720;2022-12-29T03:27:27;12.80;99.90
20977;DHT22;10647;51.016;3.720;2022-12-29T03:29:57;12.80;99.90
20977;DHT22;10647;51.016;3.720;2022-12-29T03:32:30;12.80;99.90
20977;DHT22;10647;51.016;3.720;2022-12-29T03:34:58;12.70;99.90
20977;DHT22;10647;51.016;3.720;2022-12-29T03:37:30;12.70;99.90
20977;DHT22;10647;51.016;3.720;2022-12-29T03:39:57;12.60;99.90
20977;DHT22;10647;51.016;3.720;2022-12-29T03:42:30;12.60;99.90
20977;DHT22;10647;51.016;3.720;2022-12-29T03:44:58;12.70;99.90
20977;DHT22;10647;51.016;3.720;2022-12-29T03:47:26;12.70;99.90
20977;DHT22;10647;51.016;3.720;2022-12-29T03:49:54;12.70;99.90
20977;DHT22;10647;51.016;3.720;2022-12-29T03:52:22;12.70;99.90
20977;DHT22;10647;51.016;3.720;2022-12-29T03:54:50;12.70;99.90
20977;DHT22;10647;51.016;3.720;2022-12-29T03:57:18;12.90;99.90
20977;DHT22;10647;51.016;3.720;2022-12-29T03:59:46;12.90;99.90
20977;DHT22;10647;51.016;3.720;2022-12-29T04:02:14;12.90;99.90
20977;DHT22;10647;51.016;3.720;2022-12-29T04:04:42;12.90;99.90
20977;DHT22;10647;51.016;3.720;2022-12-29T04:07:09;13.00;99.90
20977;DHT22;10647;51.016;3.720;2022-12-29T04:09:37;13.00;99.90
20977;DHT22;10647;51.016;3.720;2022-12-29T04:12:18;13.00;99.90
20977;DHT22;10647;51.016;3.720;2022-12-29T04:14:45;13.00;99.90
20977;DHT22;10647;51.016;3.720;2022-12-29T04:17:18;13.00;99.90
20977;DHT22;10647;51.016;3.720;2022-12-29T04:19:46;13.00;99.90
20977;DHT22;10647;51.016;3.720;2022-12-29T04:22:14;13.00;99.90
20977;DHT22;10647;51.016;3.720;2022-12-29T04:24:42;13.00;99.90
20977;DHT22;10647;51.016;3.720;2022-12-29T04:27:09;13.00;99.90
20977;DHT22;10647;51.016;3.720;2022-12-29T04:29:43;13.00;99.90
20977;DHT22;10647;51.016;3.720;2022-12-29T04:32:10;12.90;99.90
20977;DHT22;10647;51.016;3.720;2022-12-29T04:34:37;12.90;99.90
20977;DHT22;10647;51.016;3.720;2022-12-29T04:37:05;12.90;99.90
20977;DHT22;10647;51.016;3.720;2022-12-29T04:39:32;12.70;99.90
20977;DHT22;10647;51.016;3.720;2022-12-29T04:42:01;12.70;99.90
20977;DHT22;10647;51.016;3.720;2022-12-29T04:44:29;12.70;99.90
20977;DHT22;10647;51.016;3.720;2022-12-29T04:46:56;12.80;99.90
20977;DHT22;10647;51.016;3.720;2022-12-29T04:49:24;12.80;99.90
20977;DHT22;10647;51.016;3.720;2022-12-29T04:51:51;12.80;99.90
20977;DHT22;10647;51.016;3.720;2022-12-29T04:54:19;12.70;99.90
20977;DHT22;10647;51.016;3.720;2022-12-29T04:56:47;12.70;99.90
20977;DHT22;10647;51.016;3.720;2022-12-29T04:59:15;12.70;99.90
20977;DHT22;10647;51.016;3.720;2022-12-29T05:01:43;12.70;99.90
20977;DHT22;10647;51.016;3.720;2022-12-29T05:04:11;12.60;99.90
20977;DHT22;10647;51.016;3.720;2022-12-29T05:06:39;12.60;99.90
20977;DHT22;10647;51.016;3.720;2022-12-29T05:09:07;12.70;99.90
20977;DHT22;10647;51.016;3.720;2022-12-29T05:11:36;12.70;99.90
20977;DHT22;10647;51.016;3.720;2022-12-29T05:14:04;12.70;99.90
20977;DHT22;10647;51.016;3.720;2022-12-29T05:16:31;12.70;99.90
20977;DHT22;10647;51.016;3.720;2022-12-29T05:18:59;12.60;99.90
20977;DHT22;10647;51.016;3.720;2022-12-29T05:21:26;12.60;99.90
20977;DHT22;10647;51.016;3.720;2022-12-29T05:23:55;12.50;99.90
20977;DHT22;10647;51.016;3.720;2022-12-29T05:26:24;12.50;99.90
20977;DHT22;10647;51.016;3.720;2022-12-29T05:28:51;12.40;99.90
20977;DHT22;10647;51.016;3.720;2022-12-29T05:31:19;12.30;99.90
20977;DHT22;10647;51.016;3.720;2022-12-29T05:33:47;12.20;99.90
20977;DHT22;10647;51.016;3.720;2022-12-29T05:36:15;12.10;99.90
20977;DHT22;10647;51.016;3.720;2022-12-29T05:38:44;12.20;99.90
20977;DHT22;10647;51.016;3.720;2022-12-29T05:41:12;12.20;99.90
20977;DHT22;10647;51.016;3.720;2022-12-29T05:43:39;12.30;99.90
20977;DHT22;10647;51.016;3.720;2022-12-29T05:46:08;12.30;99.90
20977;DHT22;10647;51.016;3.720;2022-12-29T05:48:35;12.40;99.90
20977;DHT22;10647;51.016;3.720;2022-12-29T05:51:03;12.40;99.90
20977;DHT22;10647;51.016;3.720;2022-12-29T05:53:31;12.40;99.90
20977;DHT22;10647;51.016;3.720;2022-12-29T05:55:58;12.50;99.90
20977;DHT22;10647;51.016;3.720;2022-12-29T05:58:26;12.50;99.90
20977;DHT22;10647;51.016;3.720;2022-12-29T06:00:53;12.50;99.90
20977;DHT22;10647;51.016;3.720;2022-12-29T06:03:21;12.50;99.90
20977;DHT22;10647;51.016;3.720;2022-12-29T06:05:49;12.50;99.90
20977;DHT22;10647;51.016;3.720;2022-12-29T06:08:17;12.50;99.90
20977;DHT22;10647;51.016;3.720;2022-12-29T06:10:44;12.50;99.90
20977;DHT22;10647;51.016;3.720;2022-12-29T06:13:12;12.50;99.90
20977;DHT22;10647;51.016;3.720;2022-12-29T06:15:39;12.60;99.90
20977;DHT22;10647;51.016;3.720;2022-12-29T06:18:07;12.70;99.90
20977;DHT22;10647;51.016;3.720;2022-12-29T06:20:35;12.70;99.90
20977;DHT22;10647;51.016;3.720;2022-12-29T06:23:02;12.70;99.90
20977;DHT22;10647;51.016;3.720;2022-12-29T06:25:30;12.70;99.90
20977;DHT22;10647;51.016;3.720;2022-12-29T06:27:58;12.80;99.90
20977;DHT22;10647;51.016;3.720;2022-12-29T06:30:26;12.80;99.90
20977;DHT22;10647;51.016;3.720;2022-12-29T06:32:54;12.80;99.90
20977;DHT22;10647;51.016;3.720;2022-12-29T06:35:21;12.80;99.90
20977;DHT22;10647;51.016;3.720;2022-12-29T06:37:51;12.70;99.90
20977;DHT22;10647;51.016;3.720;2022-12-29T06:40:19;12.60;99.90
20977;DHT22;10647;51.016;3.720;2022-12-29T06:42:48;12.50;99.90
20977;DHT22;10647;51.016;3.720;2022-12-29T06:45:16;12.30;99.90
20977;DHT22;10647;51.016;3.720;2022-12-29T06:47:43;12.20;99.90
20977;DHT22;10647;51.016;3.720;2022-12-29T06:50:11;12.20;99.90
20977;DHT22;10647;51.016;3.720;2022-12-29T06:52:38;12.10;99.90
20977;DHT22;10647;51.016;3.720;2022-12-29T06:55:06;12.10;99.90
20977;DHT22;10647;51.016;3.720;2022-12-29T06:57:34;12.10;99.90
20977;DHT22;10647;51.016;3.720;2022-12-29T07:00:02;12.10;99.90
20977;DHT22;10647;51.016;3.720;2022-12-29T07:02:31;12.10;99.90
20977;DHT22;10647;51.016;3.720;2022-12-29T07:04:58;12.20;99.90
20977;DHT22;10647;51.016;3.720;2022-12-29T07:07:27;12.20;99.90
20977;DHT22;10647;51.016;3.720;2022-12-29T07:09:54;12.40;99.90
20977;DHT22;10647;51.016;3.720;2022-12-29T07:12:22;12.40;99.90
20977;DHT22;10647;51.016;3.720;2022-12-29T07:14:50;12.50;99.90
20977;DHT22;10647;51.016;3.720;2022-12-29T07:17:18;12.60;99.90
20977;DHT22;10647;51.016;3.720;2022-12-29T07:19:45;12.60;99.90
20977;DHT22;10647;51.016;3.720;2022-12-29T07:22:13;12.60;99.90
20977;DHT22;10647;51.016;3.720;2022-12-29T07:24:40;12.60;99.90
20977;DHT22;10647;51.016;3.720;2022-12-29T07:27:09;12.60;99.90
20977;DHT22;10647;51.016;3.720;2022-12-29T07:29:37;12.60;99.90
20977;DHT22;10647;51.016;3.720;2022-12-29T07:32:05;12.70;99.90
20977;DHT22;10647;51.016;3.720;2022-12-29T07:34:33;12.70;99.90
20977;DHT22;10647;51.016;3.720;2022-12-29T07:37:01;12.70;99.90
20977;DHT22;10647;51.016;3.720;2022-12-29T07:39:29;12.70;99.90
20977;DHT22;10647;51.016;3.720;2022-12-29T07:41:56;12.70;99.90
20977;DHT22;10647;51.016;3.720;2022-12-29T07:44:25;12.70;99.90
20977;DHT22;10647;51.016;3.720;2022-12-29T07:46:52;12.70;99.90
20977;DHT22;10647;51.016;3.720;2022-12-29T07:49:20;12.70;99.90
20977;DHT22;10647;51.016;3.720;2022-12-29T07:51:47;12.70;99.90
20977;DHT22;10647;51.016;3.720;2022-12-29T07:54:15;12.70;99.90
20977;DHT22;10647;51.016;3.720;2022-12-29T07:56:45;12.70;99.90
20977;DHT22;10647;51.016;3.720;2022-12-29T07:59:12;12.70;99.90
20977;DHT22;10647;51.016;3.720;2022-12-29T08:01:40;12.60;99.90
20977;DHT22;10647;51.016;3.720;2022-12-29T08:04:07;12.50;99.90
20977;DHT22;10647;51.016;3.720;2022-12-29T08:06:35;12.40;99.90
20977;DHT22;10647;51.016;3.720;2022-12-29T08:09:04;12.30;99.90
20977;DHT22;10647;51.016;3.720;2022-12-29T08:11:31;12.20;99.90
20977;DHT22;10647;51.016;3.720;2022-12-29T08:13:59;12.20;99.90
20977;DHT22;10647;51.016;3.720;2022-12-29T08:16:26;12.20;99.90
20977;DHT22;10647;51.016;3.720;2022-12-29T08:18:54;12.30;99.90
20977;DHT22;10647;51.016;3.720;2022-12-29T08:21:21;12.40;99.90
20977;DHT22;10647;51.016;3.720;2022-12-29T08:23:49;12.40;99.90
20977;DHT22;10647;51.016;3.720;2022-12-29T08:26:17;12.50;99.90
20977;DHT22;10647;51.016;3.720;2022-12-29T08:28:45;12.50;99.90
20977;DHT22;10647;51.016;3.720;2022-12-29T08:31:13;12.30;99.90
20977;DHT22;10647;51.016;3.720;2022-12-29T08:33:40;12.30;99.90
20977;DHT22;10647;51.016;3.720;2022-12-29T08:36:08;12.10;99.90
20977;DHT22;10647;51.016;3.720;2022-12-29T08:38:37;12.10;99.90
20977;DHT22;10647;51.016;3.720;2022-12-29T08:41:04;12.00;99.90
20977;DHT22;10647;51.016;3.720;2022-12-29T08:43:32;12.00;99.90
20977;DHT22;10647;51.016;3.720;2022-12-29T08:46:00;12.00;99.90
20977;DHT22;10647;51.016;3.720;2022-12-29T08:48:27;12.00;99.90
20977;DHT22;10647;51.016;3.720;2022-12-29T08:50:55;12.10;99.90
20977;DHT22;10647;51.016;3.720;2022-12-29T08:53:22;12.10;99.90
20977;DHT22;10647;51.016;3.720;2022-12-29T08:55:55;12.00;99.90
20977;DHT22;10647;51.016;3.720;2022-12-29T08:58:25;12.00;99.90
20977;DHT22;10647;51.016;3.720;2022-12-29T09:03:44;11.90;99.90
20977;DHT22;10647;51.016;3.720;2022-12-29T09:06:15;12.00;99.90
20977;DHT22;10647;51.016;3.720;2022-12-29T09:08:45;12.00;99.90
20977;DHT22;10647;51.016;3.720;2022-12-29T09:11:18;11.90;99.90
20977;DHT22;10647;51.016;3.720;2022-12-29T09:14:05;11.90;99.90
20977;DHT22;10647;51.016;3.720;2022-12-29T09:16:33;11.90;99.90
20977;DHT22;10647;51.016;3.720;2022-12-29T09:19:02;12.00;99.90
20977;DHT22;10647;51.016;3.720;2022-12-29T09:21:30;12.10;99.90
20977;DHT22;10647;51.016;3.720;2022-12-29T09:23:57;12.00;99.90
20977;DHT22;10647;51.016;3.720;2022-12-29T09:26:25;12.00;99.90
20977;DHT22;10647;51.016;3.720;2022-12-29T09:28:52;11.90;99.90
20977;DHT22;10647;51.016;3.720;2022-12-29T09:31:20;12.00;99.90
20977;DHT22;10647;51.016;3.720;2022-12-29T09:33:48;12.00;99.90
20977;DHT22;10647;51.016;3.720;2022-12-29T09:36:19;12.10;99.90
20977;DHT22;10647;51.016;3.720;2022-12-29T09:38:46;12.00;99.90
20977;DHT22;10647;51.016;3.720;2022-12-29T09:41:21;12.00;99.90
20977;DHT22;10647;51.016;3.720;2022-12-29T09:44:11;12.00;99.90
20977;DHT22;10647;51.016;3.720;2022-12-29T09:46:38;12.10;99.90
20977;DHT22;10647;51.016;3.720;2022-12-29T09:51:56;12.00;99.90
20977;DHT22;10647;51.016;3.720;2022-12-29T09:54:37;12.00;99.90
20977;DHT22;10647;51.016;3.720;2022-12-29T09:57:03;12.10;99.90
20977;DHT22;10647;51.016;3.720;2022-12-29T10:04:45;12.20;99.90
20977;DHT22;10647;51.016;3.720;2022-12-29T10:07:26;12.30;99.90
20977;DHT22;10647;51.016;3.720;2022-12-29T10:13:16;12.10;99.90
20977;DHT22;10647;51.016;3.720;2022-12-29T10:15:47;12.20;99.90
20977;DHT22;10647;51.016;3.720;2022-12-29T10:20:53;12.40;99.90
20977;DHT22;10647;51.016;3.720;2022-12-29T10:23:33;12.40;99.90
20977;DHT22;10647;51.016;3.720;2022-12-29T10:25:59;12.40;99.90
20977;DHT22;10647;51.016;3.720;2022-12-29T10:28:38;12.50;99.90
20977;DHT22;10647;51.016;3.720;2022-12-29T10:31:22;12.50;99.90
20977;DHT22;10647;51.016;3.720;2022-12-29T10:33:42;12.60;99.90
20977;DHT22;10647;51.016;3.720;2022-12-29T10:36:16;12.80;99.90
20977;DHT22;10647;51.016;3.720;2022-12-29T10:38:54;12.90;99.90
20977;DHT22;10647;51.016;3.720;2022-12-29T10:41:26;13.00;99.90
20977;DHT22;10647;51.016;3.720;2022-12-29T10:43:56;13.00;99.90
20977;DHT22;10647;51.016;3.720;2022-12-29T10:46:29;13.00;99.90
20977;DHT22;10647;51.016;3.720;2022-12-29T10:51:48;13.10;99.90
20977;DHT22;10647;51.016;3.720;2022-12-29T10:59:57;13.40;99.90
20977;DHT22;10647;51.016;3.720;2022-12-29T11:08:05;13.50;99.90
20977;DHT22;10647;51.016;3.720;2022-12-29T11:10:41;13.60;99.90
20977;DHT22;10647;51.016;3.720;2022-12-29T11:16:04;13.50;99.90
20977;DHT22;10647;51.016;3.720;2022-12-29T11:18:36;13.50;99.90
20977;DHT22;10647;51.016;3.720;2022-12-29T11:21:24;13.40;99.90
20977;DHT22;10647;51.016;3.720;2022-12-29T11:23:40;13.40;99.90
20977;DHT22;10647;51.016;3.720;2022-12-29T11:26:13;13.50;99.90
20977;DHT22;10647;51.016;3.720;2022-12-29T11:28:45;13.70;99.90
20977;DHT22;10647;51.016;3.720;2022-12-29T11:31:17;13.70;99.90
20977;DHT22;10647;51.016;3.720;2022-12-29T11:33:45;13.70;99.90
20977;DHT22;10647;51.016;3.720;2022-12-29T11:36:19;13.70;99.90
20977;DHT22;10647;51.016;3.720;2022-12-29T11:38:48;13.70;99.90
20977;DHT22;10647;51.016;3.720;2022-12-29T11:41:28;13.70;99.90
20977;DHT22;10647;51.016;3.720;2022-12-29T11:43:59;13.80;99.90
20977;DHT22;10647;51.016;3.720;2022-12-29T11:46:32;13.70;99.90
20977;DHT22;10647;51.016;3.720;2022-12-29T11:49:24;13.50;99.90
20977;DHT22;10647;51.016;3.720;2022-12-29T11:51:54;13.10;99.90
20977;DHT22;10647;51.016;3.720;2022-12-29T11:54:29;12.90;99.90
20977;DHT22;10647;51.016;3.720;2022-12-29T11:56:58;12.70;99.90
20977;DHT22;10647;51.016;3.720;2022-12-29T11:59:37;12.50;99.90
20977;DHT22;10647;51.016;3.720;2022-12-29T12:02:24;12.60;99.90
20977;DHT22;10647;51.016;3.720;2022-12-29T12:04:56;12.60;99.90
20977;DHT22;10647;51.016;3.720;2022-12-29T12:07:25;12.60;99.90
20977;DHT22;10647;51.016;3.720;2022-12-29T12:09:57;12.60;99.90
20977;DHT22;10647;51.016;3.720;2022-12-29T12:12:32;12.50;99.90
20977;DHT22;10647;51.016;3.720;2022-12-29T12:14:59;12.30;99.90
20977;DHT22;10647;51.016;3.720;2022-12-29T12:17:37;12.10;99.90
20977;DHT22;10647;51.016;3.720;2022-12-29T12:35:20;12.80;99.90
20977;DHT22;10647;51.016;3.720;2022-12-29T12:37:52;13.20;99.90
20977;DHT22;10647;51.016;3.720;2022-12-29T12:43:23;13.40;99.90
20977;DHT22;10647;51.016;3.720;2022-12-29T12:52:44;13.40;99.90
20977;DHT22;10647;51.016;3.720;2022-12-29T13:09:33;12.70;99.90
20977;DHT22;10647;51.016;3.720;2022-12-29T13:12:09;12.80;99.90
20977;DHT22;10647;51.016;3.720;2022-12-29T13:14:53;12.80;99.90
20977;DHT22;10647;51.016;3.720;2022-12-29T13:23:41;12.80;99.90
20977;DHT22;10647;51.016;3.720;2022-12-29T13:26:32;12.70;99.90
20977;DHT22;10647;51.016;3.720;2022-12-29T13:29:20;12.70;99.90
20977;DHT22;10647;51.016;3.720;2022-12-29T13:32:23;12.40;99.90
20977;DHT22;10647;51.016;3.720;2022-12-29T13:37:46;12.10;99.90
20977;DHT22;10647;51.016;3.720;2022-12-29T13:40:14;12.00;99.90
20977;DHT22;10647;51.016;3.720;2022-12-29T13:42:43;12.10;99.90
20977;DHT22;10647;51.016;3.720;2022-12-29T13:45:20;12.20;99.90
20977;DHT22;10647;51.016;3.720;2022-12-29T13:48:06;12.30;99.90
20977;DHT22;10647;51.016;3.720;2022-12-29T13:50:38;12.50;99.90
20977;DHT22;10647;51.016;3.720;2022-12-29T13:53:33;12.40;99.90
20977;DHT22;10647;51.016;3.720;2022-12-29T14:02:03;12.70;99.90
20977;DHT22;10647;51.016;3.720;2022-12-29T14:04:32;12.50;99.90
20977;DHT22;10647;51.016;3.720;2022-12-29T14:07:15;12.40;99.90
20977;DHT22;10647;51.016;3.720;2022-12-29T14:09:55;12.30;99.90
20977;DHT22;10647;51.016;3.720;2022-12-29T14:12:38;12.20;99.90
20977;DHT22;10647;51.016;3.720;2022-12-29T14:17:42;12.20;99.90
20977;DHT22;10647;51.016;3.720;2022-12-29T14:20:18;12.10;99.90
20977;DHT22;10647;51.016;3.720;2022-12-29T14:26:00;12.10;99.90
20977;DHT22;10647;51.016;3.720;2022-12-29T14:28:33;12.10;99.90
20977;DHT22;10647;51.016;3.720;2022-12-29T14:31:03;12.20;99.90
20977;DHT22;10647;51.016;3.720;2022-12-29T14:33:36;12.40;99.90
20977;DHT22;10647;51.016;3.720;2022-12-29T14:36:33;12.70;99.90
20977;DHT22;10647;51.016;3.720;2022-12-29T14:38:53;13.20;99.90
20977;DHT22;10647;51.016;3.720;2022-12-29T14:44:27;13.40;99.90
20977;DHT22;10647;51.016;3.720;2022-12-29T14:47:00;13.30;99.90
20977;DHT22;10647;51.016;3.720;2022-12-29T14:49:30;13.10;99.90
20977;DHT22;10647;51.016;3.720;2022-12-29T14:54:55;12.70;99.90
20977;DHT22;10647;51.016;3.720;2022-12-29T14:57:24;12.50;99.90
20977;DHT22;10647;51.016;3.720;2022-12-29T14:59:53;12.40;99.90
20977;DHT22;10647;51.016;3.720;2022-12-29T15:02:24;12.20;99.90
20977;DHT22;10647;51.016;3.720;2022-12-29T15:04:53;12.10;99.90
20977;DHT22;10647;51.016;3.720;2022-12-29T15:07:22;12.00;99.90
20977;DHT22;10647;51.016;3.720;2022-12-29T15:09:56;12.00;99.90
20977;DHT22;10647;51.016;3.720;2022-12-29T15:15:26;11.60;99.90
20977;DHT22;10647;51.016;3.720;2022-12-29T15:17:56;11.60;99.90
20977;DHT22;10647;51.016;3.720;2022-12-29T15:20:27;11.50;99.90
20977;DHT22;10647;51.016;3.720;2022-12-29T15:23:02;11.40;99.90
20977;DHT22;10647;51.016;3.720;2022-12-29T15:25:31;11.40;99.90
20977;DHT22;10647;51.016;3.720;2022-12-29T15:28:01;11.40;99.90
20977;DHT22;10647;51.016;3.720;2022-12-29T15:30:29;11.30;99.90
20977;DHT22;10647;51.016;3.720;2022-12-29T15:32:57;11.20;99.90
20977;DHT22;10647;51.016;3.720;2022-12-29T15:38:25;11.10;99.90
20977;DHT22;10647;51.016;3.720;2022-12-29T15:41:02;11.00;99.90
20977;DHT22;10647;51.016;3.720;2022-12-29T15:43:36;11.00;99.90
20977;DHT22;10647;51.016;3.720;2022-12-29T15:46:05;10.90;99.90
20977;DHT22;10647;51.016;3.720;2022-12-29T15:48:33;10.90;99.90
20977;DHT22;10647;51.016;3.720;2022-12-29T15:51:03;10.90;99.90
20977;DHT22;10647;51.016;3.720;2022-12-29T15:53:32;10.80;99.90
20977;DHT22;10647;51.016;3.720;2022-12-29T15:56:06;10.80;99.90
20977;DHT22;10647;51.016;3.720;2022-12-29T15:58:46;10.70;99.90
20977;DHT22;10647;51.016;3.720;2022-12-29T16:01:29;10.60;99.90
20977;DHT22;10647;51.016;3.720;2022-12-29T16:03:59;10.50;99.90
20977;DHT22;10647;51.016;3.720;2022-12-29T16:06:34;10.40;99.90
20977;DHT22;10647;51.016;3.720;2022-12-29T16:09:11;10.40;99.90
20977;DHT22;10647;51.016;3.720;2022-12-29T16:11:50;10.40;99.90
20977;DHT22;10647;51.016;3.720;2022-12-29T16:14:23;10.30;99.90
20977;DHT22;10647;51.016;3.720;2022-12-29T16:16:47;10.30;99.90
20977;DHT22;10647;51.016;3.720;2022-12-29T16:21:56;10.10;99.90
20977;DHT22;10647;51.016;3.720;2022-12-29T16:24:29;10.10;99.90
20977;DHT22;10647;51.016;3.720;2022-12-29T16:27:02;10.00;99.90
20977;DHT22;10647;51.016;3.720;2022-12-29T16:29:29;10.00;99.90
20977;DHT22;10647;51.016;3.720;2022-12-29T16:32:01;10.00;99.90
20977;DHT22;10647;51.016;3.720;2022-12-29T16:34:34;10.00;99.90
20977;DHT22;10647;51.016;3.720;2022-12-29T16:37:04;9.90;99.90
20977;DHT22;10647;51.016;3.720;2022-12-29T16:50:37;9.80;99.90
20977;DHT22;10647;51.016;3.720;2022-12-29T16:53:05;9.80;99.90
20977;DHT22;10647;51.016;3.720;2022-12-29T16:55:35;9.80;99.90
20977;DHT22;10647;51.016;3.720;2022-12-29T16:58:33;9.80;99.90
20977;DHT22;10647;51.016;3.720;2022-12-29T17:00:41;9.80;99.90
20977;DHT22;10647;51.016;3.720;2022-12-29T17:03:10;9.70;99.90
20977;DHT22;10647;51.016;3.720;2022-12-29T17:05:38;9.70;99.90
20977;DHT22;10647;51.016;3.720;2022-12-29T17:11:17;9.80;99.90
20977;DHT22;10647;51.016;3.720;2022-12-29T17:13:55;9.80;99.90
20977;DHT22;10647;51.016;3.720;2022-12-29T17:16:22;9.80;99.90
20977;DHT22;10647;51.016;3.720;2022-12-29T17:18:50;9.80;99.90
20977;DHT22;10647;51.016;3.720;2022-12-29T17:21:18;9.80;99.90
20977;DHT22;10647;51.016;3.720;2022-12-29T17:23:45;9.80;99.90
20977;DHT22;10647;51.016;3.720;2022-12-29T17:26:13;9.90;99.90
20977;DHT22;10647;51.016;3.720;2022-12-29T17:28:40;9.90;99.90
20977;DHT22;10647;51.016;3.720;2022-12-29T17:31:09;10.00;99.90
20977;DHT22;10647;51.016;3.720;2022-12-29T17:33:39;10.00;99.90
20977;DHT22;10647;51.016;3.720;2022-12-29T17:36:10;10.00;99.90
20977;DHT22;10647;51.016;3.720;2022-12-29T17:38:38;9.90;99.90
20977;DHT22;10647;51.016;3.720;2022-12-29T17:41:10;10.00;99.90
20977;DHT22;10647;51.016;3.720;2022-12-29T17:43:36;10.00;99.90
20977;DHT22;10647;51.016;3.720;2022-12-29T17:46:05;10.00;99.90
20977;DHT22;10647;51.016;3.720;2022-12-29T17:48:35;10.00;99.90
20977;DHT22;10647;51.016;3.720;2022-12-29T17:51:03;10.00;99.90
20977;DHT22;10647;51.016;3.720;2022-12-29T17:53:30;10.00;99.90
20977;DHT22;10647;51.016;3.720;2022-12-29T17:55:58;10.10;99.90
20977;DHT22;10647;51.016;3.720;2022-12-29T17:58:27;10.20;99.90
20977;DHT22;10647;51.016;3.720;2022-12-29T18:00:59;10.20;99.90
20977;DHT22;10647;51.016;3.720;2022-12-29T18:03:32;10.20;99.90
20977;DHT22;10647;51.016;3.720;2022-12-29T18:05:57;10.20;99.90
20977;DHT22;10647;51.016;3.720;2022-12-29T18:08:25;10.20;99.90
20977;DHT22;10647;51.016;3.720;2022-12-29T18:10:55;10.10;99.90
20977;DHT22;10647;51.016;3.720;2022-12-29T18:13:25;10.10;99.90
20977;DHT22;10647;51.016;3.720;2022-12-29T18:15:56;10.20;99.90
20977;DHT22;10647;51.016;3.720;2022-12-29T18:18:25;10.20;99.90
20977;DHT22;10647;51.016;3.720;2022-12-29T18:20:55;10.20;99.90
20977;DHT22;10647;51.016;3.720;2022-12-29T18:23:34;10.20;99.90
20977;DHT22;10647;51.016;3.720;2022-12-29T18:26:03;10.20;99.90
20977;DHT22;10647;51.016;3.720;2022-12-29T18:28:32;10.20;99.90